Time;durP1;ratioP1;P1;durP2;ratioP2;P2;SDS_P1;SDS_P2;PMS_P1;PMS_P2;Temp;Humidity;BMP_temperature;BMP_pressure;BME280_temperature;BME280_humidity;BME280_pressure;Samples;Min_cycle;Max_cycle;Signal;HPM_P1;HPM_P2
2021/11/27 00:01:14;;;;;;;;;;;5.80;99.90;;;;;;4196859;28;19912;-61
2021/11/27 00:03:15;;;;;;;;;;;5.80;99.90;;;;;;4197331;28;20294;-61
2021/11/27 00:05:17;;;;;;;;;;;5.70;99.90;;;;;;4197836;28;20362;-61
2021/11/27 00:07:17;;;;;;;;;;;5.80;99.90;;;;;;4200799;28;20356;-61
2021/11/27 00:09:18;;;;;;;;;;;5.80;99.90;;;;;;4200507;28;19944;-61
2021/11/27 00:11:18;;;;;;;;;;;5.80;99.90;;;;;;4199671;28;20281;-61
2021/11/27 00:13:20;;;;;;;;;;;5.80;99.90;;;;;;4200543;28;20396;-61
2021/11/27 00:15:21;;;;;;;;;;;5.80;99.90;;;;;;4199837;28;19912;-62
2021/11/27 00:17:22;;;;;;;;;;;5.80;99.90;;;;;;4200871;28;19904;-61
2021/11/27 00:19:22;;;;;;;;;;;5.80;99.90;;;;;;4200577;28;20336;-61
2021/11/27 00:21:24;;;;;;;;;;;5.80;99.90;;;;;;4199952;28;19911;-61
2021/11/27 00:23:25;;;;;;;;;;;5.80;99.90;;;;;;4200364;28;19912;-61
2021/11/27 00:25:26;;;;;;;;;;;5.80;99.90;;;;;;4199882;28;19912;-62
2021/11/27 00:27:27;;;;;;;;;;;5.80;99.90;;;;;;4182422;28;19905;-62
2021/11/27 00:29:27;;;;;;;;;;;5.80;99.90;;;;;;4200043;28;19921;-60
2021/11/27 00:31:29;;;;;;;;;;;5.80;99.90;;;;;;4199539;28;19916;-61
2021/11/27 00:33:29;;;;;;;;;;;5.80;99.90;;;;;;4200394;28;19911;-61
2021/11/27 00:35:30;;;;;;;;;;;5.90;99.90;;;;;;4199711;28;20030;-61
2021/11/27 00:37:31;;;;;;;;;;;5.90;99.90;;;;;;4200156;28;19909;-61
2021/11/27 00:39:31;;;;;;;;;;;5.80;99.90;;;;;;4200514;28;19905;-62
2021/11/27 00:41:32;;;;;;;;;;;5.80;99.90;;;;;;4199797;28;19935;-61
2021/11/27 00:43:33;;;;;;;;;;;5.80;99.90;;;;;;4199888;28;19905;-62
2021/11/27 00:45:34;;;;;;;;;;;5.80;99.90;;;;;;4199898;28;19947;-61
2021/11/27 00:47:34;;;;;;;;;;;5.80;99.90;;;;;;4200018;28;19911;-61
2021/11/27 00:49:35;;;;;;;;;;;5.80;99.90;;;;;;4199847;28;19962;-61
2021/11/27 00:51:35;;;;;;;;;;;5.80;99.90;;;;;;4199189;28;19912;-61
2021/11/27 00:53:36;;;;;;;;;;;5.80;99.90;;;;;;4199908;28;19904;-62
2021/11/27 00:55:37;;;;;;;;;;;5.80;99.90;;;;;;4199018;28;19928;-62
2021/11/27 00:57:38;;;;;;;;;;;5.80;99.90;;;;;;4199830;28;19948;-61
2021/11/27 00:59:39;;;;;;;;;;;5.80;99.90;;;;;;4199919;28;19916;-61
2021/11/27 01:01:39;;;;;;;;;;;5.90;99.90;;;;;;4199050;28;19904;-60
2021/11/27 01:03:41;;;;;;;;;;;5.80;99.90;;;;;;4199553;28;19916;-61
2021/11/27 01:05:41;;;;;;;;;;;5.80;99.90;;;;;;4199021;28;19908;-61
2021/11/27 01:07:42;;;;;;;;;;;5.90;99.90;;;;;;4199600;28;19912;-61
2021/11/27 01:09:43;;;;;;;;;;;5.90;99.90;;;;;;4199560;28;19908;-61
2021/11/27 01:11:46;;;;;;;;;;;5.90;99.90;;;;;;4198807;28;19908;-61
2021/11/27 01:13:47;;;;;;;;;;;5.80;99.90;;;;;;4199541;28;20363;-62
2021/11/27 01:15:48;;;;;;;;;;;5.90;99.90;;;;;;4198562;28;20271;-61
2021/11/27 01:17:49;;;;;;;;;;;5.90;99.90;;;;;;4199684;28;19915;-62
2021/11/27 01:19:50;;;;;;;;;;;5.80;99.90;;;;;;4199367;28;19904;-61
2021/11/27 01:21:56;;;;;;;;;;;5.80;99.90;;;;;;4199037;28;20402;-62
2021/11/27 01:23:58;;;;;;;;;;;5.80;99.90;;;;;;4199375;28;19931;-61
2021/11/27 01:25:58;;;;;;;;;;;5.90;99.90;;;;;;4198686;28;19908;-61
2021/11/27 01:27:59;;;;;;;;;;;5.90;99.90;;;;;;4199643;28;20362;-61
2021/11/27 01:29:59;;;;;;;;;;;5.90;99.90;;;;;;4199123;28;19931;-61
2021/11/27 01:32:00;;;;;;;;;;;5.90;99.90;;;;;;4198479;28;20327;-61
2021/11/27 01:34:01;;;;;;;;;;;5.90;99.90;;;;;;4199100;28;19910;-62
2021/11/27 01:36:03;;;;;;;;;;;5.90;99.90;;;;;;4198447;28;19982;-62
2021/11/27 01:38:03;;;;;;;;;;;5.90;99.90;;;;;;4199624;28;19939;-62
2021/11/27 01:40:06;;;;;;;;;;;5.90;99.90;;;;;;4199337;28;19908;-62
2021/11/27 01:42:08;;;;;;;;;;;5.90;99.90;;;;;;4198857;28;20418;-62
2021/11/27 01:44:08;;;;;;;;;;;5.90;99.90;;;;;;4199254;28;19962;-61
2021/11/27 01:46:10;;;;;;;;;;;5.90;99.90;;;;;;4198477;28;19912;-62
2021/11/27 01:48:13;;;;;;;;;;;5.90;99.90;;;;;;4199350;28;19905;-62
2021/11/27 01:50:14;;;;;;;;;;;5.90;99.90;;;;;;4198288;28;20365;-63
2021/11/27 01:52:14;;;;;;;;;;;5.90;99.90;;;;;;4199144;28;19908;-62
2021/11/27 01:54:15;;;;;;;;;;;6.00;99.90;;;;;;4198952;28;20344;-61
2021/11/27 01:56:18;;;;;;;;;;;5.90;99.90;;;;;;4180686;28;20279;-61
2021/11/27 01:58:19;;;;;;;;;;;5.90;99.90;;;;;;4198857;28;19946;-62
2021/11/27 02:00:22;;;;;;;;;;;6.00;99.90;;;;;;4198268;28;19912;-62
2021/11/27 02:02:23;;;;;;;;;;;6.00;99.90;;;;;;4198579;28;19962;-62
2021/11/27 02:04:24;;;;;;;;;;;5.90;99.90;;;;;;4198767;28;19908;-62
2021/11/27 02:06:31;;;;;;;;;;;5.90;99.90;;;;;;4198318;28;19954;-61
2021/11/27 02:08:32;;;;;;;;;;;6.00;99.90;;;;;;4198816;28;19943;-62
2021/11/27 02:10:33;;;;;;;;;;;5.90;99.90;;;;;;4197808;28;19916;-62
2021/11/27 02:12:33;;;;;;;;;;;5.90;99.90;;;;;;4198868;28;19904;-62
2021/11/27 02:14:34;;;;;;;;;;;5.90;99.90;;;;;;4198881;28;19914;-62
2021/11/27 02:16:35;;;;;;;;;;;6.00;99.90;;;;;;4198648;28;19927;-61
2021/11/27 02:18:35;;;;;;;;;;;6.00;99.90;;;;;;4215800;28;20354;-62
2021/11/27 02:20:37;;;;;;;;;;;5.90;99.90;;;;;;4215082;28;19911;-62
2021/11/27 02:22:38;;;;;;;;;;;5.90;99.90;;;;;;4213313;28;20013;-59
2021/11/27 02:24:39;;;;;;;;;;;5.80;99.90;;;;;;4197385;28;19915;-62
2021/11/27 02:26:40;;;;;;;;;;;5.80;99.90;;;;;;4214629;28;19951;-62
2021/11/27 02:28:42;;;;;;;;;;;5.70;99.90;;;;;;4214432;28;19995;-62
2021/11/27 02:30:43;;;;;;;;;;;5.70;99.90;;;;;;4214367;28;20275;-62
2021/11/27 02:32:44;;;;;;;;;;;5.60;99.90;;;;;;4215174;28;19911;-62
2021/11/27 02:34:45;;;;;;;;;;;5.60;99.90;;;;;;4180416;28;19909;-63
2021/11/27 02:36:49;;;;;;;;;;;5.50;99.90;;;;;;4214787;28;20393;-63
2021/11/27 02:38:51;;;;;;;;;;;5.50;99.90;;;;;;4215102;28;20045;-62
2021/11/27 02:40:54;;;;;;;;;;;5.40;99.90;;;;;;4214652;28;19999;-62
2021/11/27 02:42:55;;;;;;;;;;;5.40;99.90;;;;;;4214988;28;19908;-62
2021/11/27 02:44:55;;;;;;;;;;;5.30;99.90;;;;;;4215042;28;20436;-62
2021/11/27 02:46:57;;;;;;;;;;;5.40;99.90;;;;;;4214959;28;19911;-62
2021/11/27 02:48:57;;;;;;;;;;;5.30;99.90;;;;;;4214902;28;19907;-62
2021/11/27 02:50:58;;;;;;;;;;;5.30;99.90;;;;;;4214661;28;19918;-62
2021/11/27 02:52:58;;;;;;;;;;;5.30;99.90;;;;;;4215072;28;19908;-62
2021/11/27 02:54:59;;;;;;;;;;;5.30;99.90;;;;;;4214839;28;19908;-62
2021/11/27 02:56:59;;;;;;;;;;;5.30;99.90;;;;;;4214307;28;19908;-63
2021/11/27 02:59:16;;;;;;;;;;;5.20;99.90;;;;;;4215077;28;19904;-62
2021/11/27 03:01:17;;;;;;;;;;;5.10;99.90;;;;;;4214406;28;19947;-62
2021/11/27 03:03:17;;;;;;;;;;;5.10;99.90;;;;;;4214800;28;20538;-62
2021/11/27 03:05:18;;;;;;;;;;;5.10;99.90;;;;;;4214142;28;20130;-63
2021/11/27 03:07:19;;;;;;;;;;;5.10;99.90;;;;;;4214939;28;19912;-62
2021/11/27 03:09:20;;;;;;;;;;;5.00;99.90;;;;;;4215025;28;19904;-62
2021/11/27 03:11:21;;;;;;;;;;;4.90;99.90;;;;;;4214412;28;19912;-62
2021/11/27 03:13:29;;;;;;;;;;;4.90;99.90;;;;;;4214980;28;19981;-62
2021/11/27 03:15:31;;;;;;;;;;;4.90;99.90;;;;;;4214398;28;20265;-63
2021/11/27 03:17:32;;;;;;;;;;;4.90;99.90;;;;;;4214743;28;19907;-62
2021/11/27 03:19:34;;;;;;;;;;;4.80;99.90;;;;;;4215011;28;19904;-62
2021/11/27 03:21:34;;;;;;;;;;;4.80;99.90;;;;;;4214338;28;19904;-62
2021/11/27 03:23:35;;;;;;;;;;;4.70;99.90;;;;;;4214905;28;19910;-62
2021/11/27 03:25:35;;;;;;;;;;;4.60;99.90;;;;;;4214114;28;19904;-62
2021/11/27 03:27:37;;;;;;;;;;;4.60;99.90;;;;;;4214783;28;19904;-62
2021/11/27 03:29:37;;;;;;;;;;;4.60;99.90;;;;;;4214906;28;19911;-62
2021/11/27 03:31:38;;;;;;;;;;;4.70;99.90;;;;;;4214447;28;19911;-62
2021/11/27 03:33:39;;;;;;;;;;;4.60;99.90;;;;;;4214809;28;19916;-63
2021/11/27 03:35:40;;;;;;;;;;;4.60;99.90;;;;;;4214285;28;19954;-62
2021/11/27 03:37:41;;;;;;;;;;;4.70;99.90;;;;;;4214761;28;19911;-62
2021/11/27 03:39:42;;;;;;;;;;;4.50;99.90;;;;;;4216199;28;19904;-62
2021/11/27 03:41:42;;;;;;;;;;;4.50;99.90;;;;;;4217252;28;19904;-62
2021/11/27 03:43:43;;;;;;;;;;;4.50;99.90;;;;;;4218415;28;19949;-62
2021/11/27 03:45:44;;;;;;;;;;;4.50;99.90;;;;;;4217129;28;19939;-62
2021/11/27 03:47:56;;;;;;;;;;;4.60;99.90;;;;;;4217787;28;20425;-62
2021/11/27 03:49:57;;;;;;;;;;;4.60;99.90;;;;;;4218025;28;19908;-62
2021/11/27 03:51:58;;;;;;;;;;;4.50;99.90;;;;;;4216996;28;20267;-61
2021/11/27 03:53:59;;;;;;;;;;;4.40;99.90;;;;;;4218150;28;19958;-61
2021/11/27 03:56:01;;;;;;;;;;;4.50;99.90;;;;;;4217150;28;19904;-61
2021/11/27 03:58:02;;;;;;;;;;;4.50;99.90;;;;;;4217696;28;19904;-62
2021/11/27 04:00:03;;;;;;;;;;;4.50;99.90;;;;;;4217675;28;19904;-63
2021/11/27 04:02:05;;;;;;;;;;;4.50;99.90;;;;;;4217047;28;20285;-62
2021/11/27 04:04:05;;;;;;;;;;;4.50;99.90;;;;;;4217485;28;19904;-60
2021/11/27 04:06:06;;;;;;;;;;;4.50;99.90;;;;;;4216754;28;20341;-61
2021/11/27 04:08:07;;;;;;;;;;;4.50;99.90;;;;;;4199428;28;19939;-61
2021/11/27 04:10:08;;;;;;;;;;;4.50;99.90;;;;;;4216834;28;19907;-63
2021/11/27 04:12:08;;;;;;;;;;;4.50;99.90;;;;;;4217208;28;19915;-61
2021/11/27 04:14:09;;;;;;;;;;;4.50;99.90;;;;;;4217245;28;19915;-61
2021/11/27 04:16:09;;;;;;;;;;;4.40;99.90;;;;;;4216840;28;19911;-60
2021/11/27 04:18:10;;;;;;;;;;;4.30;99.90;;;;;;4217243;28;19954;-62
2021/11/27 04:20:10;;;;;;;;;;;4.20;99.90;;;;;;4216442;28;19910;-64
2021/11/27 04:22:11;;;;;;;;;;;4.10;99.90;;;;;;4217431;28;19911;-61
2021/11/27 04:24:11;;;;;;;;;;;4.20;99.90;;;;;;4217483;28;19908;-62
2021/11/27 04:26:12;;;;;;;;;;;4.10;99.90;;;;;;4216673;28;19908;-61
2021/11/27 04:28:13;;;;;;;;;;;4.10;99.90;;;;;;4217212;28;19908;-61
2021/11/27 04:30:15;;;;;;;;;;;4.10;99.90;;;;;;4216576;28;20369;-62
2021/11/27 04:32:16;;;;;;;;;;;4.10;99.90;;;;;;4217171;28;20358;-61
2021/11/27 04:34:17;;;;;;;;;;;4.10;99.90;;;;;;4216953;28;19904;-61
2021/11/27 04:36:17;;;;;;;;;;;4.00;99.90;;;;;;4216581;28;19911;-62
2021/11/27 04:40:14;;;;;;;;;;;3.90;99.90;;;;;;4144408;28;19971;-63
2021/11/27 04:42:14;;;;;;;;;;;3.90;99.90;;;;;;4145805;28;19968;-62
2021/11/27 04:44:15;;;;;;;;;;;4.00;99.90;;;;;;4171423;28;19920;-62
2021/11/27 04:46:16;;;;;;;;;;;4.00;99.90;;;;;;4170771;28;19913;-62
2021/11/27 04:48:16;;;;;;;;;;;4.10;99.90;;;;;;4171374;28;20398;-62
2021/11/27 04:50:17;;;;;;;;;;;4.10;99.90;;;;;;4170415;28;20391;-61
2021/11/27 04:52:18;;;;;;;;;;;4.00;99.90;;;;;;4169940;28;19920;-62
2021/11/27 04:54:18;;;;;;;;;;;4.10;99.90;;;;;;4170217;28;19963;-64
2021/11/27 04:56:19;;;;;;;;;;;4.10;99.90;;;;;;4169599;28;19944;-61
2021/11/27 04:58:19;;;;;;;;;;;4.10;99.90;;;;;;4175943;28;20343;-61
2021/11/27 05:00:28;;;;;;;;;;;4.10;99.90;;;;;;4177101;28;19958;-61
2021/11/27 05:02:28;;;;;;;;;;;4.10;99.90;;;;;;4177436;28;19936;-60
2021/11/27 05:04:29;;;;;;;;;;;4.10;99.90;;;;;;4177992;28;19909;-62
2021/11/27 05:06:31;;;;;;;;;;;4.20;99.90;;;;;;4177161;28;19917;-61
2021/11/27 05:08:31;;;;;;;;;;;4.20;99.90;;;;;;4177890;28;19913;-60
2021/11/27 05:10:32;;;;;;;;;;;4.20;99.90;;;;;;4177153;28;20007;-63
2021/11/27 05:12:33;;;;;;;;;;;4.20;99.90;;;;;;4177447;28;19920;-61
2021/11/27 05:14:33;;;;;;;;;;;4.20;99.90;;;;;;4177976;28;19916;-61
2021/11/27 05:16:34;;;;;;;;;;;4.20;99.90;;;;;;4177012;28;19913;-61
2021/11/27 05:18:35;;;;;;;;;;;4.20;99.90;;;;;;4179113;28;19925;-61
2021/11/27 05:20:36;;;;;;;;;;;4.20;99.90;;;;;;4178342;28;20312;-60
2021/11/27 05:22:37;;;;;;;;;;;4.20;99.90;;;;;;4178393;28;19955;-61
2021/11/27 05:24:43;;;;;;;;;;;4.30;99.90;;;;;;4178774;28;19916;-61
2021/11/27 05:26:44;;;;;;;;;;;4.30;99.90;;;;;;4177917;28;19981;-62
2021/11/27 05:28:45;;;;;;;;;;;4.30;99.90;;;;;;4178789;28;20451;-60
2021/11/27 05:30:47;;;;;;;;;;;4.30;99.90;;;;;;4177761;28;19916;-62
2021/11/27 05:33:05;;;;;;;;;;;4.30;99.90;;;;;;4151890;28;20414;-62
2021/11/27 05:35:06;;;;;;;;;;;4.30;99.90;;;;;;4170951;28;20317;-63
2021/11/27 05:37:07;;;;;;;;;;;4.40;99.90;;;;;;4178020;28;19963;-62
2021/11/27 05:39:07;;;;;;;;;;;4.40;99.90;;;;;;4186797;28;20376;-62
2021/11/27 05:41:08;;;;;;;;;;;4.40;99.90;;;;;;4194266;28;19913;-62
2021/11/27 05:43:08;;;;;;;;;;;4.40;99.90;;;;;;4194479;28;19909;-62
2021/11/27 05:45:10;;;;;;;;;;;4.50;99.90;;;;;;4193953;28;19908;-66
2021/11/27 05:47:10;;;;;;;;;;;4.50;99.90;;;;;;4194686;28;20359;-62
2021/11/27 05:49:11;;;;;;;;;;;4.50;99.90;;;;;;4194721;28;19962;-61
2021/11/27 05:51:12;;;;;;;;;;;4.50;99.90;;;;;;4185404;28;19916;-61
2021/11/27 05:53:13;;;;;;;;;;;4.50;99.90;;;;;;4183845;28;19909;-61
2021/11/27 05:55:14;;;;;;;;;;;4.60;99.90;;;;;;4183171;28;19944;-62
2021/11/27 05:57:14;;;;;;;;;;;4.50;99.90;;;;;;4184044;28;19932;-61
2021/11/27 05:59:15;;;;;;;;;;;4.50;99.90;;;;;;4166282;28;19914;-61
2021/11/27 06:01:15;;;;;;;;;;;4.60;99.90;;;;;;4182943;28;20326;-61
2021/11/27 06:03:16;;;;;;;;;;;4.60;99.90;;;;;;4183987;28;19909;-61
2021/11/27 06:05:16;;;;;;;;;;;4.60;99.90;;;;;;4182964;28;20323;-60
2021/11/27 06:07:17;;;;;;;;;;;4.60;99.90;;;;;;4183437;28;19952;-61
2021/11/27 06:09:17;;;;;;;;;;;4.70;99.90;;;;;;4166156;28;19917;-61
2021/11/27 06:11:18;;;;;;;;;;;4.70;99.90;;;;;;4166665;28;19917;-60
2021/11/27 06:13:18;;;;;;;;;;;4.70;99.90;;;;;;4167339;28;20275;-61
2021/11/27 06:15:19;;;;;;;;;;;4.80;99.90;;;;;;4168377;28;19957;-61
2021/11/27 06:17:20;;;;;;;;;;;4.80;99.90;;;;;;4183650;28;19909;-59
2021/11/27 06:19:20;;;;;;;;;;;4.80;99.90;;;;;;4183397;28;19920;-61
2021/11/27 06:21:21;;;;;;;;;;;4.80;99.90;;;;;;4182754;28;19913;-60
2021/11/27 06:23:21;;;;;;;;;;;4.90;99.90;;;;;;4183538;28;19913;-61
2021/11/27 06:25:22;;;;;;;;;;;4.90;99.90;;;;;;4182768;28;19944;-61
2021/11/27 06:27:22;;;;;;;;;;;4.90;99.90;;;;;;4183685;28;19951;-61
2021/11/27 06:29:23;;;;;;;;;;;4.90;99.90;;;;;;4165800;28;20287;-61
2021/11/27 06:31:23;;;;;;;;;;;4.90;99.90;;;;;;4182603;28;20062;-61
2021/11/27 06:33:24;;;;;;;;;;;5.00;99.90;;;;;;4183415;28;19909;-61
2021/11/27 06:35:25;;;;;;;;;;;5.00;99.90;;;;;;4182797;28;19917;-60
2021/11/27 06:37:25;;;;;;;;;;;5.00;99.90;;;;;;4183133;28;19909;-60
2021/11/27 06:39:26;;;;;;;;;;;5.00;99.90;;;;;;4183107;28;20378;-61
2021/11/27 06:41:26;;;;;;;;;;;5.10;99.90;;;;;;4182143;28;19920;-61
2021/11/27 06:43:27;;;;;;;;;;;5.10;99.90;;;;;;4182498;28;19908;-61
2021/11/27 06:45:28;;;;;;;;;;;5.10;99.90;;;;;;4181954;28;21629;-61
2021/11/27 06:47:29;;;;;;;;;;;5.10;99.90;;;;;;4183149;28;19916;-61
2021/11/27 06:49:30;;;;;;;;;;;5.10;99.90;;;;;;4182854;28;20255;-60
2021/11/27 06:51:30;;;;;;;;;;;5.10;99.90;;;;;;4181673;28;19921;-60
2021/11/27 06:53:31;;;;;;;;;;;5.10;99.90;;;;;;4183088;28;19920;-60
2021/11/27 06:55:31;;;;;;;;;;;5.10;99.90;;;;;;4181917;28;19967;-61
2021/11/27 06:57:33;;;;;;;;;;;5.10;99.90;;;;;;4181673;28;19916;-61
2021/11/27 06:59:34;;;;;;;;;;;5.10;99.90;;;;;;4182856;28;20062;-61
2021/11/27 07:01:34;;;;;;;;;;;5.10;99.90;;;;;;4181176;28;20310;-61
2021/11/27 07:03:35;;;;;;;;;;;5.00;99.90;;;;;;4179825;28;19920;-61
2021/11/27 07:05:35;;;;;;;;;;;5.00;99.90;;;;;;4180963;28;19967;-61
2021/11/27 07:07:36;;;;;;;;;;;5.00;99.90;;;;;;4182092;28;19928;-61
2021/11/27 07:09:36;;;;;;;;;;;5.00;99.90;;;;;;4181257;28;19913;-62
2021/11/27 07:11:37;;;;;;;;;;;5.00;99.90;;;;;;4181192;28;19916;-61
2021/11/27 07:13:39;;;;;;;;;;;5.00;99.90;;;;;;4182565;28;20032;-62
2021/11/27 07:15:39;;;;;;;;;;;5.00;99.90;;;;;;4181497;28;19916;-62
2021/11/27 07:17:40;;;;;;;;;;;5.10;99.90;;;;;;4182217;28;19908;-61
2021/11/27 07:19:41;;;;;;;;;;;5.00;99.90;;;;;;4181893;28;20382;-59
2021/11/27 07:21:41;;;;;;;;;;;5.10;99.90;;;;;;4181664;28;19909;-61
2021/11/27 07:23:42;;;;;;;;;;;5.00;99.90;;;;;;4181611;28;19921;-61
2021/11/27 07:25:42;;;;;;;;;;;5.10;99.90;;;;;;4181303;28;19940;-62
2021/11/27 07:27:43;;;;;;;;;;;5.10;99.90;;;;;;4182192;28;20011;-62
2021/11/27 07:29:43;;;;;;;;;;;5.10;99.90;;;;;;4182351;28;19916;-61
2021/11/27 07:31:44;;;;;;;;;;;5.10;99.90;;;;;;4181107;28;19959;-61
2021/11/27 07:33:44;;;;;;;;;;;5.10;99.90;;;;;;4181801;28;19955;-61
2021/11/27 07:35:45;;;;;;;;;;;5.10;99.90;;;;;;4181557;28;19948;-60
2021/11/27 07:37:45;;;;;;;;;;;5.10;99.90;;;;;;4181639;28;19909;-62
2021/11/27 07:39:46;;;;;;;;;;;5.10;99.90;;;;;;4181519;28;20054;-62
2021/11/27 07:41:46;;;;;;;;;;;5.20;99.90;;;;;;4181259;28;19994;-60
2021/11/27 07:43:47;;;;;;;;;;;5.20;99.90;;;;;;4173565;28;20357;-61
2021/11/27 07:45:48;;;;;;;;;;;5.20;99.90;;;;;;4179074;28;20039;-62
2021/11/27 07:47:48;;;;;;;;;;;5.20;99.90;;;;;;4180893;28;19939;-62
2021/11/27 07:49:49;;;;;;;;;;;5.20;99.90;;;;;;4182138;28;19962;-62
2021/11/27 07:51:49;;;;;;;;;;;5.10;99.90;;;;;;4180739;28;20363;-62
2021/11/27 07:53:50;;;;;;;;;;;5.10;99.90;;;;;;4182232;28;19915;-62
2021/11/27 07:55:50;;;;;;;;;;;5.10;99.90;;;;;;4180622;28;19908;-61
2021/11/27 07:57:51;;;;;;;;;;;5.10;99.90;;;;;;4181784;28;20371;-62
2021/11/27 07:59:51;;;;;;;;;;;5.10;99.90;;;;;;4181231;28;19917;-61
2021/11/27 08:01:52;;;;;;;;;;;5.10;99.90;;;;;;4180946;28;19962;-61
2021/11/27 08:03:52;;;;;;;;;;;5.10;99.90;;;;;;4181907;28;19909;-61
2021/11/27 08:05:53;;;;;;;;;;;5.10;99.90;;;;;;4180845;28;19909;-61
2021/11/27 08:07:53;;;;;;;;;;;5.10;99.90;;;;;;4181589;28;20367;-60
2021/11/27 08:09:55;;;;;;;;;;;5.10;99.90;;;;;;4182050;28;19913;-61
2021/11/27 08:11:56;;;;;;;;;;;5.10;99.90;;;;;;4180633;28;19913;-62
2021/11/27 08:13:59;;;;;;;;;;;5.10;99.90;;;;;;4181174;28;20375;-62
2021/11/27 08:17:31;;;;;;;16.80;10.50;;;5.00;99.90;;;;;;4188986;28;20421;-60
2021/11/27 08:19:31;;;;;;;15.40;10.15;;;5.00;99.90;;;;;;4183003;28;20037;-61
2021/11/27 08:21:32;;;;;;;17.95;10.27;;;5.00;99.90;;;;;;4183799;28;20087;-61
2021/11/27 08:23:33;;;;;;;14.60;9.98;;;5.00;99.90;;;;;;4189399;28;20059;-61
2021/11/27 08:25:33;;;;;;;15.45;10.02;;;5.00;99.90;;;;;;4186169;28;20044;-61
2021/11/27 08:27:34;;;;;;;16.42;8.90;;;5.10;99.90;;;;;;4183210;28;20112;-61
2021/11/27 08:29:35;;;;;;;13.38;9.32;;;5.10;99.90;;;;;;4188441;28;20025;-61
2021/11/27 08:31:36;;;;;;;17.63;10.23;;;5.10;99.90;;;;;;4183517;28;20395;-61
2021/11/27 08:33:37;;;;;;;12.88;9.23;;;5.10;99.90;;;;;;4190239;28;20041;-61
2021/11/27 08:35:37;;;;;;;16.40;9.82;;;5.20;99.90;;;;;;4187200;28;20045;-61
2021/11/27 08:37:38;;;;;;;14.32;9.77;;;5.20;99.90;;;;;;4185872;28;20035;-61
2021/11/27 08:39:39;;;;;;;17.73;10.07;;;5.30;99.90;;;;;;4188670;28;20040;-61
2021/11/27 08:41:39;;;;;;;22.05;11.07;;;5.30;99.90;;;;;;4183146;28;20033;-61
2021/11/27 08:43:40;;;;;;;20.95;11.18;;;5.20;99.90;;;;;;4187607;28;20025;-61
2021/11/27 08:45:44;;;;;;;18.05;11.32;;;5.20;99.90;;;;;;4183396;28;20033;-61
2021/11/27 08:47:45;;;;;;;15.23;10.43;;;5.30;99.90;;;;;;4189170;28;20064;-61
2021/11/27 08:49:46;;;;;;;16.20;10.20;;;5.20;99.90;;;;;;4183794;28;20437;-60
2021/11/27 08:51:47;;;;;;;19.02;11.45;;;5.30;99.90;;;;;;4183176;28;20222;-61
2021/11/27 08:53:48;;;;;;;20.45;11.15;;;5.30;99.90;;;;;;4186197;28;20037;-61
2021/11/27 08:55:48;;;;;;;19.67;11.20;;;5.30;99.90;;;;;;4188498;28;20433;-62
2021/11/27 08:57:49;;;;;;;23.27;12.57;;;5.40;99.90;;;;;;4183812;28;20040;-61
2021/11/27 08:59:50;;;;;;;18.50;10.77;;;5.50;99.90;;;;;;4183640;28;20024;-62
2021/11/27 09:01:53;;;;;;;24.63;12.32;;;5.60;99.90;;;;;;4182844;28;20036;-61
2021/11/27 09:03:53;;;;;;;19.15;11.48;;;5.80;99.90;;;;;;4183031;28;20476;-61
2021/11/27 09:05:54;;;;;;;27.40;13.52;;;6.00;99.90;;;;;;4187632;28;20039;-62
2021/11/27 09:07:55;;;;;;;21.25;11.63;;;6.10;99.90;;;;;;4185847;28;20467;-61
2021/11/27 09:09:55;;;;;;;23.25;11.02;;;6.20;99.90;;;;;;4183012;28;20039;-61
2021/11/27 09:11:56;;;;;;;18.70;10.93;;;6.40;99.90;;;;;;4188275;28;20067;-61
2021/11/27 09:13:57;;;;;;;18.10;11.27;;;6.60;99.90;;;;;;4178920;28;20033;-61
2021/11/27 09:15:58;;;;;;;19.88;10.23;;;6.80;99.90;;;;;;4182324;28;20053;-61
2021/11/27 09:17:59;;;;;;;18.98;11.30;;;7.00;99.90;;;;;;4183164;28;20045;-61
2021/11/27 09:19:59;;;;;;;20.33;10.35;;;7.20;99.90;;;;;;4183532;28;20037;-61
2021/11/27 09:22:02;;;;;;;19.05;10.70;;;7.30;99.90;;;;;;4188457;28;20036;-61
2021/11/27 09:24:04;;;;;;;19.08;10.48;;;7.50;99.90;;;;;;4187865;28;20032;-61
2021/11/27 09:26:04;;;;;;;19.35;10.07;;;7.50;99.90;;;;;;4185931;28;20043;-61
2021/11/27 09:28:05;;;;;;;17.38;9.88;;;7.50;99.90;;;;;;4176481;28;20112;-61
2021/11/27 09:30:09;;;;;;;19.48;9.48;;;7.60;99.90;;;;;;4170913;28;20017;-62
2021/11/27 09:32:10;;;;;;;17.60;10.95;;;7.60;99.90;;;;;;4177521;28;20037;-61
2021/11/27 09:34:11;;;;;;;28.20;10.43;;;7.60;99.90;;;;;;4175380;28;20117;-61
2021/11/27 09:36:15;;;;;;;19.33;8.80;;;7.40;99.90;;;;;;4171512;28;20037;-61
2021/11/27 09:38:15;;;;;;;14.55;8.77;;;7.40;99.90;;;;;;4172057;28;20021;-61
2021/11/27 09:40:17;;;;;;;18.85;8.98;;;7.40;99.90;;;;;;4171393;28;20546;-62
2021/11/27 09:42:18;;;;;;;18.08;9.38;;;7.40;99.90;;;;;;4171970;28;20108;-62
2021/11/27 09:44:19;;;;;;;16.42;8.73;;;7.30;99.90;;;;;;4171655;28;20033;-62
2021/11/27 09:46:22;;;;;;;21.30;9.80;;;7.40;99.90;;;;;;4171045;28;20380;-62
2021/11/27 09:48:23;;;;;;;18.25;8.63;;;7.40;99.90;;;;;;4176549;28;20061;-62
2021/11/27 09:50:24;;;;;;;17.08;8.55;;;7.40;99.90;;;;;;4171822;28;20383;-62
2021/11/27 09:52:25;;;;;;;20.35;8.90;;;7.40;99.90;;;;;;4171827;28;20064;-62
2021/11/27 09:54:26;;;;;;;19.05;8.65;;;7.40;99.90;;;;;;4171818;28;20399;-62
2021/11/27 09:56:28;;;;;;;20.92;9.05;;;7.40;99.90;;;;;;4171149;28;20471;-62
2021/11/27 09:58:29;;;;;;;16.45;8.10;;;7.40;99.90;;;;;;4171818;28;20065;-62
2021/11/27 10:00:29;;;;;;;17.38;8.43;;;7.30;99.90;;;;;;4171549;28;20470;-63
2021/11/27 10:02:31;;;;;;;14.57;8.07;;;7.10;99.90;;;;;;4178713;28;20388;-63
2021/11/27 10:04:33;;;;;;;17.45;8.25;;;7.10;99.90;;;;;;4172791;28;20495;-62
2021/11/27 10:06:37;;;;;;;16.52;8.20;;;7.00;99.90;;;;;;4175967;28;20045;-62
2021/11/27 10:08:38;;;;;;;14.73;7.30;;;6.90;99.90;;;;;;4170953;28;20034;-63
2021/11/27 10:10:39;;;;;;;16.45;7.05;;;6.90;99.90;;;;;;4171256;28;20361;-62
2021/11/27 10:12:42;;;;;;;15.57;7.22;;;6.90;99.90;;;;;;4174746;28;20029;-62
2021/11/27 10:14:43;;;;;;;16.35;7.45;;;6.90;99.90;;;;;;4171366;28;20472;-62
2021/11/27 10:16:59;;;;;;;15.02;7.78;;;6.80;99.90;;;;;;4170663;28;20056;-62
2021/11/27 10:19:13;;;;;;;9.57;5.88;;;6.80;99.90;;;;;;4173708;28;20025;-62
2021/11/27 10:21:19;;;;;;;14.02;7.00;;;6.70;99.90;;;;;;4170767;28;20431;-62
2021/11/27 10:23:31;;;;;;;21.85;8.45;;;6.70;99.90;;;;;;4171612;28;20036;-62
2021/11/27 10:25:38;;;;;;;14.82;7.13;;;6.70;99.90;;;;;;4165511;28;20036;-63
2021/11/27 10:27:39;;;;;;;13.30;6.45;;;6.60;99.90;;;;;;4171649;28;20063;-62
2021/11/27 10:29:39;;;;;;;15.95;6.95;;;6.60;99.90;;;;;;4174250;28;20061;-62
2021/11/27 10:31:41;;;;;;;14.55;6.55;;;6.60;99.90;;;;;;4172176;28;20033;-62
2021/11/27 10:33:42;;;;;;;12.30;6.45;;;6.60;99.90;;;;;;4176164;28;20112;-62
2021/11/27 10:35:58;;;;;;;15.77;6.32;;;6.70;99.90;;;;;;4173330;28;20516;-63
2021/11/27 10:37:59;;;;;;;16.00;6.90;;;6.60;99.90;;;;;;4157356;28;20031;-62
2021/11/27 10:40:09;;;;;;;13.57;6.50;;;6.70;99.90;;;;;;4169706;28;20061;-63
2021/11/27 10:42:11;;;;;;;14.68;6.60;;;6.70;99.90;;;;;;4171330;28;20025;-63
2021/11/27 10:44:12;;;;;;;;;;;6.80;99.90;;;;;;4173767;28;20025;-63
2021/11/27 10:46:25;;;;;;;16.63;6.35;;;6.80;99.90;;;;;;4171754;28;19920;-62
2021/11/27 10:48:26;;;;;;;;;;;6.80;99.90;;;;;;4176218;28;20060;-62
2021/11/27 10:50:26;;;;;;;21.83;6.53;;;6.90;99.90;;;;;;4170444;28;19916;-63
2021/11/27 10:52:28;;;;;;;14.25;5.88;;;6.80;99.90;;;;;;4170970;28;20430;-63
2021/11/27 10:54:43;;;;;;;16.30;6.53;;;6.80;99.90;;;;;;4175706;28;20929;-63
2021/11/27 10:56:49;;;;;;;20.58;7.60;;;6.80;99.90;;;;;;4164102;28;20093;-63
2021/11/27 10:58:59;;;;;;;10.63;5.57;;;6.80;99.90;;;;;;4173352;28;20091;-62
2021/11/27 11:01:01;;;;;;;11.95;5.88;;;6.90;99.90;;;;;;4171887;28;20034;-62
2021/11/27 11:03:03;;;;;;;12.73;6.20;;;6.90;99.90;;;;;;4174694;28;20083;-62
2021/11/27 11:05:11;;;;;;;16.05;6.72;;;6.90;99.90;;;;;;4170686;28;20476;-64
2021/11/27 11:07:19;;;;;;;21.63;6.93;;;6.80;99.90;;;;;;4170921;28;20037;-61
2021/11/27 11:09:20;;;;;;;11.35;6.15;;;6.90;99.90;;;;;;4176083;28;20068;-63
2021/11/27 11:11:21;;;;;;;13.63;6.57;;;6.90;99.90;;;;;;4172181;28;20029;-62
2021/11/27 11:13:29;;;;;;;16.85;6.78;;;6.90;99.90;;;;;;4174034;28;20036;-62
2021/11/27 11:15:39;;;;;;;15.00;5.85;;;6.90;99.90;;;;;;4174544;28;20110;-62
2021/11/27 11:17:41;;;;;;;9.57;5.30;;;6.90;99.90;;;;;;4170504;28;20025;-61
2021/11/27 11:19:42;;;;;;;13.23;5.47;;;6.90;99.90;;;;;;4175552;28;20025;-62
2021/11/27 11:22:14;;;;;;;12.50;5.30;;;7.00;99.90;;;;;;4169812;28;20037;-62
2021/11/27 11:24:26;;;;;;;10.52;5.30;;;7.00;99.90;;;;;;4169871;28;20021;-62
2021/11/27 11:26:28;;;;;;;11.80;5.28;;;7.00;99.90;;;;;;4172268;28;20048;-61
2021/11/27 11:28:49;;;;;;;15.32;6.00;;;7.00;99.90;;;;;;4172214;28;20029;-62
2021/11/27 11:31:00;;;;;;;12.38;5.32;;;7.00;99.90;;;;;;4177481;28;20356;-62
2021/11/27 11:33:00;;;;;;;20.77;6.57;;;7.00;99.90;;;;;;4173429;28;20039;-62
2021/11/27 11:35:01;;;;;;;17.58;5.50;;;7.00;99.90;;;;;;4170827;28;20033;-62